createdAt,value
2022-09-04T00:00:19.553Z,20.80
2022-09-04T00:03:28.016Z,20.90
2022-09-04T00:06:02.918Z,21.10
2022-09-04T00:08:49.043Z,21.10
2022-09-04T00:11:43.272Z,21.20
2022-09-04T00:14:47.947Z,21.20
2022-09-04T00:17:23.829Z,21.30
2022-09-04T00:19:57.095Z,21.30
2022-09-04T00:22:34.623Z,21.20
2022-09-04T00:25:11.960Z,21.00
2022-09-04T00:27:45.175Z,20.80
2022-09-04T00:30:39.281Z,20.80
2022-09-04T00:33:19.672Z,20.60
2022-09-04T00:35:59.452Z,20.50
2022-09-04T00:38:53.266Z,20.40
2022-09-04T00:41:47.094Z,20.40
2022-09-04T00:47:09.682Z,20.20
2022-09-04T00:49:46.790Z,20.20
2022-09-04T00:52:21.347Z,20.20
2022-09-04T00:55:09.223Z,20.10
2022-09-04T00:58:08.956Z,20.00
2022-09-04T01:00:38.233Z,19.20
2022-09-04T01:03:15.499Z,20.00
2022-09-04T01:06:02.211Z,19.80
2022-09-04T01:09:00.104Z,19.90
2022-09-04T01:11:55.282Z,19.90
2022-09-04T01:14:48.642Z,19.80
2022-09-04T01:17:51.143Z,19.80
2022-09-04T01:20:52.677Z,19.70
2022-09-04T01:23:56.139Z,19.70
2022-09-04T01:26:28.929Z,19.70
2022-09-04T01:29:15.590Z,19.70
2022-09-04T01:31:55.050Z,19.60
2022-09-04T01:35:01.860Z,19.60
2022-09-04T01:37:38.892Z,19.50
2022-09-04T01:40:35.425Z,19.50
2022-09-04T01:43:01.770Z,19.60
2022-09-04T01:46:00.332Z,19.50
2022-09-04T01:48:37.547Z,19.60
2022-09-04T01:51:39.943Z,19.60
2022-09-04T01:54:39.495Z,19.60
2022-09-04T01:57:37.427Z,19.50
2022-09-04T02:00:18.784Z,19.50
2022-09-04T02:03:21.822Z,19.60
2022-09-04T02:06:07.479Z,19.60
2022-09-04T02:09:25.294Z,19.60
2022-09-04T02:12:07.167Z,19.60
2022-09-04T02:14:55.876Z,19.60
2022-09-04T02:17:55.714Z,19.50
2022-09-04T02:20:56.957Z,19.50
2022-09-04T02:23:53.091Z,19.50
2022-09-04T02:26:38.257Z,19.40
2022-09-04T02:29:16.192Z,19.40
2022-09-04T02:32:09.629Z,19.40
2022-09-04T02:35:05.304Z,19.40
2022-09-04T02:37:42.306Z,19.50
2022-09-04T02:40:44.784Z,19.50
2022-09-04T02:43:22.477Z,19.40
2022-09-04T02:46:00.183Z,19.30
2022-09-04T02:48:48.739Z,19.30
2022-09-04T02:51:26.566Z,19.40
2022-09-04T02:54:07.039Z,19.30
2022-09-04T02:56:44.607Z,19.40
2022-09-04T02:59:41.726Z,19.30
2022-09-04T03:02:30.488Z,19.30
2022-09-04T03:07:51.535Z,19.40
2022-09-04T03:10:25.051Z,19.50
2022-09-04T03:13:05.412Z,19.30
2022-09-04T03:16:00.143Z,19.30
2022-09-04T03:19:01.712Z,19.30
2022-09-04T03:21:56.730Z,19.40
2022-09-04T03:24:34.523Z,19.40
2022-09-04T03:27:06.068Z,19.20
2022-09-04T03:29:41.682Z,19.20
2022-09-04T03:32:54.954Z,19.20
2022-09-04T03:36:25.196Z,19.30
2022-09-04T03:38:59.160Z,19.10
2022-09-04T03:41:37.223Z,19.10
2022-09-04T03:44:27.294Z,19.10
2022-09-04T03:47:04.898Z,19.00
2022-09-04T03:49:42.777Z,19.30
2022-09-04T03:52:32.936Z,19.00
2022-09-04T03:55:16.526Z,19.00
2022-09-04T03:57:51.852Z,19.00
2022-09-04T04:00:22.510Z,19.00
2022-09-04T04:03:31.314Z,19.00
2022-09-04T04:06:23.980Z,18.90
2022-09-04T04:08:55.457Z,18.90
2022-09-04T04:11:54.269Z,18.80
2022-09-04T04:14:33.898Z,18.90
2022-09-04T04:17:12.644Z,18.80
2022-09-04T04:19:48.336Z,18.90
2022-09-04T04:22:43.250Z,18.90
2022-09-04T04:25:48.809Z,18.80
2022-09-04T04:29:00.722Z,18.80
2022-09-04T04:31:44.610Z,18.80
2022-09-04T04:34:19.094Z,18.70
2022-09-04T04:36:59.793Z,18.70
2022-09-04T04:39:46.555Z,18.70
2022-09-04T04:42:44.507Z,18.60
2022-09-04T04:45:38.738Z,18.80
2022-09-04T04:48:31.758Z,18.70
2022-09-04T04:51:05.188Z,18.80
2022-09-04T04:53:48.203Z,18.70
2022-09-04T04:56:17.664Z,18.70
2022-09-04T04:59:08.756Z,18.70
2022-09-04T05:02:17.965Z,18.70
2022-09-04T05:05:05.190Z,18.80
2022-09-04T05:08:08.553Z,18.70
2022-09-04T05:10:57.865Z,18.70
2022-09-04T05:13:44.213Z,18.60
2022-09-04T05:16:23.071Z,18.70
2022-09-04T05:18:56.716Z,18.60
2022-09-04T05:21:31.848Z,18.70
2022-09-04T05:24:20.039Z,18.80
2022-09-04T05:27:25.720Z,18.80
2022-09-04T05:30:06.148Z,18.70
2022-09-04T05:32:40.499Z,18.90
2022-09-04T05:35:12.165Z,18.90
2022-09-04T05:37:46.913Z,18.90
2022-09-04T06:09:37.727Z,19.80
2022-09-04T06:12:46.562Z,21.00
2022-09-04T06:15:55.765Z,21.30
2022-09-04T06:18:46.495Z,21.30
2022-09-04T06:26:45.132Z,21.40
2022-09-04T06:29:28.764Z,21.70
2022-09-04T06:32:21.966Z,21.70
2022-09-04T06:34:56.274Z,21.90
2022-09-04T06:37:43.574Z,21.90
2022-09-04T06:40:47.858Z,22.20
2022-09-04T06:43:38.476Z,22.10
2022-09-04T06:46:20.433Z,22.20
2022-09-04T06:48:54.858Z,22.20
2022-09-04T06:51:27.189Z,22.30
2022-09-04T06:54:07.532Z,22.40
2022-09-04T06:56:39.834Z,22.40
2022-09-04T06:59:21.151Z,22.40
2022-09-04T07:02:07.690Z,22.60
2022-09-04T07:04:37.036Z,22.70
2022-09-04T07:07:14.787Z,22.80
2022-09-04T07:09:44.129Z,22.80
2022-09-04T07:12:24.717Z,22.90
2022-09-04T07:15:12.377Z,23.10
2022-09-04T07:18:01.266Z,23.30
2022-09-04T07:37:56.474Z,23.50
2022-09-04T07:40:27.962Z,24.80
2022-09-04T07:43:00.019Z,25.00
2022-09-04T07:45:30.187Z,25.00
2022-09-04T07:48:11.884Z,25.10
2022-09-04T07:50:50.360Z,25.20
2022-09-04T07:53:34.804Z,25.10
2022-09-04T07:56:32.279Z,25.10
2022-09-04T07:59:09.063Z,25.30
2022-09-04T08:01:41.534Z,25.40
2022-09-04T08:04:33.905Z,25.50
2022-09-04T08:07:09.471Z,25.50
2022-09-04T08:09:56.515Z,25.50
2022-09-04T08:12:40.082Z,25.60
2022-09-04T08:15:21.635Z,25.80
2022-09-04T08:20:41.440Z,25.90
2022-09-04T08:28:33.866Z,26.60
2022-09-04T11:09:44.803Z,27.70
2022-09-04T11:17:59.582Z,32.30
2022-09-04T11:20:45.142Z,32.10
2022-09-04T11:23:27.578Z,32.10
2022-09-04T11:26:35.956Z,31.70
2022-09-04T11:29:16.443Z,31.80
2022-09-04T11:31:57.259Z,32.10
2022-09-04T11:34:39.371Z,32.40
2022-09-04T11:37:40.255Z,32.60
2022-09-04T11:40:17.926Z,32.80
2022-09-04T11:42:58.152Z,32.80
2022-09-04T11:45:48.980Z,32.80
2022-09-04T11:48:37.330Z,32.50
2022-09-04T11:51:16.607Z,32.50
2022-09-04T11:54:06.356Z,32.40
2022-09-04T11:57:13.504Z,32.30
2022-09-04T12:00:00.225Z,32.30
2022-09-04T12:02:44.191Z,32.20
2022-09-04T12:05:26.651Z,32.30
2022-09-04T12:08:19.729Z,32.10
2022-09-04T13:30:15.520Z,32.10
2022-09-04T13:35:26.395Z,35.80
2022-09-04T13:37:58.162Z,35.80
2022-09-04T13:41:06.607Z,35.60
2022-09-04T13:43:50.173Z,35.50
2022-09-04T13:46:44.318Z,37.10
2022-09-04T13:49:26.628Z,35.30
2022-09-04T13:52:07.492Z,35.30
2022-09-04T13:54:39.206Z,35.20
2022-09-04T13:57:18.015Z,35.10
2022-09-04T13:59:51.426Z,35.00
2022-09-04T14:02:25.131Z,34.40
2022-09-04T14:05:13.240Z,35.10
2022-09-04T14:07:45.491Z,35.10
2022-09-04T14:33:54.701Z,35.00
2022-09-04T14:36:57.140Z,35.20
2022-09-04T14:39:41.059Z,35.20
2022-09-04T14:42:28.444Z,35.20
2022-09-04T14:45:31.454Z,35.30
2022-09-04T14:48:10.506Z,35.40
2022-09-04T14:50:58.874Z,35.50
2022-09-04T14:53:32.161Z,35.40
2022-09-04T14:56:18.579Z,35.20
2022-09-04T14:58:50.854Z,35.30
2022-09-04T15:01:30.167Z,35.30
2022-09-04T15:04:07.944Z,35.40
2022-09-04T15:07:11.305Z,35.40
2022-09-04T15:09:43.641Z,35.40
2022-09-04T15:12:25.311Z,35.60
2022-09-04T15:14:57.571Z,35.60
2022-09-04T15:17:29.850Z,35.70
2022-09-04T15:20:02.130Z,35.70
2022-09-04T15:22:43.747Z,35.80
2022-09-04T15:25:54.673Z,35.70
2022-09-04T15:28:03.873Z,35.70
2022-09-04T17:20:10.624Z,35.50
2022-09-04T17:28:56.532Z,30.70
2022-09-04T18:45:11.333Z,30.50
2022-09-04T18:50:21.588Z,27.70
2022-09-04T18:50:30.120Z,27.50
2022-09-04T18:50:36.751Z,27.50
2022-09-04T18:51:38.996Z,27.40
2022-09-04T18:57:00.356Z,27.20
2022-09-04T18:59:39.499Z,27.20
2022-09-04T19:02:13.820Z,27.10
2022-09-04T19:05:02.993Z,27.10
2022-09-04T19:07:46.624Z,27.00
2022-09-04T19:10:27.292Z,26.90
2022-09-04T19:13:00.691Z,26.90
2022-09-04T20:12:39.712Z,26.80
2022-09-04T20:15:22.240Z,26.10
2022-09-04T20:18:12.085Z,26.00
2022-09-04T20:20:46.765Z,26.00
2022-09-04T20:23:35.038Z,25.90
2022-09-04T20:26:27.970Z,25.80
2022-09-04T20:29:20.968Z,25.70
2022-09-04T20:31:58.627Z,25.70
2022-09-04T20:34:32.890Z,25.60
2022-09-04T20:37:08.224Z,25.40
2022-09-04T20:39:49.002Z,25.40
2022-09-04T20:42:26.422Z,25.40
2022-09-04T20:46:46.897Z,25.30
2022-09-04T20:52:44.941Z,25.20
2022-09-04T20:52:59.380Z,25.20
2022-09-04T20:53:12.389Z,25.10
2022-09-04T20:55:48.321Z,25.10
2022-09-04T21:03:11.088Z,25.10
2022-09-04T21:03:18.655Z,25.00
2022-09-04T21:04:06.997Z,24.80
2022-09-04T21:06:41.471Z,24.80
2022-09-04T21:09:30.653Z,24.80
2022-09-04T21:12:08.027Z,24.80
2022-09-04T21:14:45.595Z,24.70
2022-09-04T21:17:37.314Z,24.60
2022-09-04T21:20:11.937Z,24.70
2022-09-04T21:23:03.689Z,24.60
2022-09-04T21:25:51.904Z,24.50
2022-09-04T21:28:23.508Z,24.60
2022-09-04T21:31:19.165Z,24.50
2022-09-04T21:34:11.920Z,24.50
2022-09-04T21:36:49.781Z,24.50
2022-09-04T21:39:45.580Z,24.40
2022-09-04T21:42:22.816Z,24.30
2022-09-04T21:44:54.482Z,24.30
2022-09-04T21:47:44.745Z,24.20
2022-09-04T21:50:48.208Z,24.30
2022-09-04T21:53:45.656Z,24.10
2022-09-04T21:58:14.157Z,24.10
2022-09-04T22:02:28.550Z,23.90
2022-09-04T22:02:44.607Z,23.80
2022-09-04T22:04:25.762Z,23.90
2022-09-04T22:13:26.391Z,23.80
2022-09-04T22:13:30.217Z,23.70
2022-09-04T22:13:39.417Z,23.70
2022-09-04T22:15:37.545Z,23.60
2022-09-04T22:18:09.440Z,23.60
2022-09-04T22:20:53.011Z,23.60
2022-09-04T22:23:39.345Z,23.60
2022-09-04T22:26:23.386Z,23.60
2022-09-04T22:28:55.919Z,23.50
2022-09-04T22:31:29.959Z,23.50
2022-09-04T22:34:16.162Z,23.50
2022-09-04T22:37:13.846Z,23.50
2022-09-04T22:40:19.084Z,23.50
2022-09-04T22:42:53.337Z,23.40
2022-09-04T22:45:46.131Z,23.40
2022-09-04T22:48:33.118Z,23.40
2022-09-04T22:51:28.805Z,23.20
2022-09-04T22:54:12.740Z,23.20
2022-09-04T22:57:05.331Z,23.10
2022-09-04T22:59:48.819Z,23.00
2022-09-04T23:05:54.228Z,23.10
2022-09-04T23:13:50.737Z,23.10
2022-09-04T23:13:54.628Z,23.10
2022-09-04T23:14:38.313Z,22.90
2022-09-04T23:17:22.069Z,23.00
2022-09-04T23:26:31.449Z,22.90
2022-09-04T23:26:47.347Z,22.90
2022-09-04T23:26:50.541Z,22.90
2022-09-04T23:29:07.356Z,22.80
2022-09-04T23:32:07.366Z,22.70
2022-09-04T23:34:34.876Z,22.70
2022-09-04T23:39:43.790Z,22.60
2022-09-04T23:42:20.984Z,22.70
2022-09-04T23:44:59.390Z,22.70
2022-09-04T23:47:48.500Z,22.50
2022-09-04T23:50:15.663Z,22.60
2022-09-04T23:52:56.587Z,22.60
2022-09-04T23:56:12.916Z,22.60
2022-09-04T23:59:21.268Z,22.50
